createdAt,value
2018-06-25T00:01:56.734Z,14.90
2018-06-25T00:04:24.483Z,14.90
2018-06-25T00:06:52.270Z,14.80
2018-06-25T00:09:20.079Z,14.80
2018-06-25T00:11:47.846Z,14.80
2018-06-25T00:14:15.747Z,14.70
2018-06-25T00:16:43.456Z,14.60
2018-06-25T00:19:11.290Z,14.60
2018-06-25T00:21:39.164Z,14.80
2018-06-25T00:24:06.966Z,14.80
2018-06-25T00:26:34.698Z,14.80
2018-06-25T00:29:02.509Z,14.50
2018-06-25T00:31:30.319Z,14.60
2018-06-25T00:33:58.114Z,14.60
2018-06-25T00:36:25.822Z,14.60
2018-06-25T00:38:53.757Z,14.60
2018-06-25T00:41:21.494Z,14.40
2018-06-25T00:43:49.289Z,14.40
2018-06-25T00:46:17.057Z,14.50
2018-06-25T00:48:44.809Z,14.50
2018-06-25T00:51:12.573Z,14.50
2018-06-25T00:53:40.297Z,14.40
2018-06-25T00:56:08.042Z,14.40
2018-06-25T00:58:47.334Z,14.50
2018-06-25T01:01:15.670Z,14.40
2018-06-25T01:03:43.637Z,14.30
2018-06-25T01:06:11.494Z,14.20
2018-06-25T01:08:39.459Z,14.20
2018-06-25T01:11:07.197Z,14.10
2018-06-25T01:16:03.024Z,14.10
2018-06-25T01:18:31.062Z,14.10
2018-06-25T01:20:58.905Z,14.10
2018-06-25T01:23:26.737Z,14.10
2018-06-25T01:25:54.750Z,13.90
2018-06-25T01:28:22.777Z,13.70
2018-06-25T01:30:50.640Z,13.70
2018-06-25T01:35:46.193Z,13.80
2018-06-25T01:38:14.082Z,13.90
2018-06-25T01:40:41.810Z,13.70
2018-06-25T01:43:09.566Z,13.70
2018-06-25T01:45:37.393Z,13.70
2018-06-25T01:48:05.281Z,13.70
2018-06-25T01:50:33.138Z,13.60
2018-06-25T01:53:00.886Z,13.60
2018-06-25T01:55:28.668Z,13.50
2018-06-25T01:57:56.435Z,13.60
2018-06-25T02:00:24.170Z,13.50
2018-06-25T02:02:51.907Z,13.40
2018-06-25T02:05:19.699Z,13.50
2018-06-25T02:07:47.391Z,13.50
2018-06-25T02:10:15.232Z,13.50
2018-06-25T02:12:42.949Z,13.50
2018-06-25T02:15:10.694Z,13.50
2018-06-25T02:17:38.380Z,13.50
2018-06-25T02:20:06.425Z,13.40
2018-06-25T02:22:34.302Z,13.40
2018-06-25T02:25:02.027Z,13.40
2018-06-25T02:27:29.869Z,13.40
2018-06-25T02:29:57.602Z,13.40
2018-06-25T02:32:25.354Z,13.40
2018-06-25T02:34:53.081Z,13.50
2018-06-25T02:37:20.841Z,13.50
2018-06-25T02:39:48.798Z,13.50
2018-06-25T02:42:16.621Z,13.60
2018-06-25T02:44:44.373Z,13.50
2018-06-25T02:47:12.177Z,13.40
2018-06-25T02:49:39.892Z,13.40
2018-06-25T02:52:07.698Z,13.50
2018-06-25T02:54:35.441Z,13.60
2018-06-25T02:57:03.216Z,13.50
2018-06-25T02:59:30.952Z,13.50
2018-06-25T03:01:58.705Z,13.60
2018-06-25T03:04:26.425Z,13.60
2018-06-25T03:06:54.308Z,13.60
2018-06-25T03:09:22.025Z,13.60
2018-06-25T03:11:49.714Z,13.50
2018-06-25T03:14:17.445Z,13.50
2018-06-25T03:16:45.204Z,13.60
2018-06-25T03:19:12.990Z,13.50
2018-06-25T03:21:40.706Z,13.50
2018-06-25T03:24:08.415Z,13.50
2018-06-25T03:26:36.205Z,13.50
2018-06-25T03:29:04.001Z,13.50
2018-06-25T03:31:31.692Z,13.50
2018-06-25T03:33:59.421Z,13.50
2018-06-25T03:36:27.149Z,13.50
2018-06-25T03:38:54.827Z,13.40
2018-06-25T03:41:22.674Z,13.50
2018-06-25T03:43:50.413Z,13.40
2018-06-25T03:46:18.161Z,13.40
2018-06-25T03:48:45.878Z,13.50
2018-06-25T03:51:13.577Z,13.50
2018-06-25T03:53:41.475Z,13.50
2018-06-25T03:56:09.198Z,13.50
2018-06-25T03:58:37.006Z,13.60
2018-06-25T04:01:04.954Z,13.70
2018-06-25T04:03:32.694Z,13.80
2018-06-25T04:06:00.582Z,13.70
2018-06-25T04:08:28.309Z,13.60
2018-06-25T04:10:56.111Z,13.60
2018-06-25T04:13:23.875Z,13.50
2018-06-25T04:18:19.257Z,13.60
2018-06-25T04:20:47.188Z,13.70
2018-06-25T04:23:14.894Z,13.80
2018-06-25T04:25:42.623Z,13.80
2018-06-25T04:28:10.348Z,13.70
2018-06-25T04:30:38.151Z,13.80
2018-06-25T04:33:05.878Z,13.80
2018-06-25T04:35:33.640Z,14.00
2018-06-25T04:38:01.469Z,14.10
2018-06-25T04:40:29.213Z,14.20
2018-06-25T04:42:56.981Z,14.20
2018-06-25T04:45:24.765Z,14.30
2018-06-25T04:47:52.502Z,14.30
2018-06-25T04:50:20.248Z,14.20
2018-06-25T04:52:48.013Z,14.20
2018-06-25T04:55:15.805Z,14.40
2018-06-25T04:57:43.529Z,14.40
2018-06-25T05:00:11.354Z,14.50
2018-06-25T05:02:39.309Z,14.50
2018-06-25T05:05:07.098Z,14.60
2018-06-25T05:07:34.893Z,14.60
2018-06-25T05:10:02.593Z,14.80
2018-06-25T05:12:30.355Z,15.10
2018-06-25T05:14:58.049Z,15.30
2018-06-25T05:17:25.811Z,15.40
2018-06-25T05:19:53.652Z,15.50
2018-06-25T05:22:21.415Z,15.50
2018-06-25T05:24:49.484Z,15.50
2018-06-25T05:27:17.225Z,15.50
2018-06-25T05:32:13.660Z,15.50
2018-06-25T05:34:41.361Z,15.60
2018-06-25T05:37:09.206Z,15.60
2018-06-25T05:42:05.206Z,15.60
2018-06-25T05:44:33.017Z,15.60
2018-06-25T05:47:00.826Z,15.60
2018-06-25T05:49:30.402Z,15.70
2018-06-25T05:52:04.611Z,15.80
2018-06-25T05:54:32.362Z,15.80
2018-06-25T05:57:00.413Z,15.80
2018-06-25T05:59:28.134Z,15.90
2018-06-25T06:01:55.909Z,15.90
2018-06-25T06:04:23.615Z,15.90
2018-06-25T06:06:51.326Z,15.90
2018-06-25T06:09:19.034Z,15.90
2018-06-25T06:11:46.789Z,16.00
2018-06-25T06:14:14.646Z,16.10
2018-06-25T06:16:42.553Z,16.20
2018-06-25T06:19:10.248Z,16.30
2018-06-25T06:21:38.013Z,16.40
2018-06-25T06:24:05.750Z,16.60
2018-06-25T06:26:33.424Z,16.60
2018-06-25T06:29:01.229Z,16.50
2018-06-25T06:31:28.948Z,16.60
2018-06-25T06:33:56.773Z,16.50
2018-06-25T06:36:24.497Z,16.70
2018-06-25T06:38:52.265Z,16.80
2018-06-25T06:41:20.044Z,16.90
2018-06-25T06:43:47.786Z,17.00
2018-06-25T06:46:15.523Z,17.20
2018-06-25T06:48:43.230Z,17.30
2018-06-25T06:51:10.981Z,17.40
2018-06-25T06:53:38.656Z,17.50
2018-06-25T06:56:06.414Z,17.70
2018-06-25T06:58:34.227Z,17.40
2018-06-25T07:01:01.965Z,17.10
2018-06-25T07:03:29.653Z,17.00
2018-06-25T07:05:57.397Z,17.20
2018-06-25T07:08:25.098Z,17.10
2018-06-25T07:10:53.078Z,17.30
2018-06-25T07:13:20.834Z,17.20
2018-06-25T07:15:48.601Z,17.20
2018-06-25T07:18:16.465Z,17.10
2018-06-25T07:20:44.244Z,16.80
2018-06-25T07:23:12.007Z,16.50
2018-06-25T07:25:39.716Z,16.30
2018-06-25T07:28:07.462Z,16.50
2018-06-25T07:30:35.202Z,16.50
2018-06-25T07:33:03.076Z,16.70
2018-06-25T07:35:30.878Z,16.80
2018-06-25T07:37:58.665Z,16.80
2018-06-25T07:40:26.399Z,17.00
2018-06-25T07:42:54.332Z,17.10
2018-06-25T07:45:22.212Z,17.40
2018-06-25T07:47:51.329Z,17.50
2018-06-25T07:50:19.131Z,18.00
2018-06-25T07:52:47.021Z,19.00
2018-06-25T07:55:14.833Z,20.70
2018-06-25T07:57:42.959Z,21.80
2018-06-25T08:00:10.770Z,21.40
2018-06-25T08:02:38.576Z,20.70
2018-06-25T08:05:06.524Z,20.40
2018-06-25T08:07:34.508Z,19.70
2018-06-25T08:10:02.381Z,19.30
2018-06-25T08:12:31.139Z,19.10
2018-06-25T08:14:58.998Z,18.80
2018-06-25T08:17:26.793Z,18.70
2018-06-25T08:19:54.685Z,18.80
2018-06-25T08:22:22.730Z,18.80
2018-06-25T08:24:50.513Z,18.80
2018-06-25T08:27:18.337Z,18.50
2018-06-25T08:29:46.136Z,18.10
2018-06-25T08:32:13.892Z,18.10
2018-06-25T08:34:41.605Z,18.40
2018-06-25T08:40:02.285Z,20.30
2018-06-25T08:42:30.083Z,21.00
2018-06-25T08:44:58.152Z,22.20
2018-06-25T08:47:25.872Z,22.60
2018-06-25T08:49:53.637Z,22.40
2018-06-25T08:52:21.451Z,23.60
2018-06-25T08:54:49.165Z,24.60
2018-06-25T08:57:16.939Z,24.70
2018-06-25T08:59:44.713Z,25.10
2018-06-25T09:02:12.510Z,24.80
2018-06-25T09:04:40.443Z,23.60
2018-06-25T09:07:08.119Z,22.60
2018-06-25T09:09:35.950Z,21.60
2018-06-25T09:12:03.731Z,20.60
2018-06-25T09:14:31.473Z,20.00
2018-06-25T09:22:44.962Z,19.60
2018-06-25T09:25:12.718Z,19.30
2018-06-25T09:27:47.319Z,19.50
2018-06-25T09:30:15.728Z,19.90
2018-06-25T09:32:43.541Z,19.90
2018-06-25T09:35:11.234Z,20.10
2018-06-25T09:37:39.000Z,20.40
2018-06-25T09:40:08.026Z,20.70
2018-06-25T09:42:35.988Z,21.90
2018-06-25T09:45:17.462Z,23.90
2018-06-25T09:47:45.358Z,25.90
2018-06-25T09:50:13.312Z,27.30
2018-06-25T09:52:41.092Z,27.30
2018-06-25T09:58:02.922Z,23.60
2018-06-25T10:00:38.990Z,22.80
2018-06-25T10:03:06.918Z,22.00
2018-06-25T10:05:34.689Z,21.10
2018-06-25T10:08:02.473Z,20.60
2018-06-25T10:10:30.355Z,19.90
2018-06-25T10:12:58.182Z,20.10
2018-06-25T10:15:26.000Z,20.20
2018-06-25T10:17:53.740Z,20.20
2018-06-25T10:20:21.612Z,20.20
2018-06-25T10:22:49.634Z,20.50
2018-06-25T10:25:17.680Z,20.90
2018-06-25T10:30:13.761Z,22.90
2018-06-25T10:32:41.560Z,23.50
2018-06-25T10:35:09.572Z,23.60
2018-06-25T10:37:37.353Z,23.90
2018-06-25T10:40:05.262Z,23.60
2018-06-25T10:42:33.309Z,23.40
2018-06-25T10:45:01.098Z,23.40
2018-06-25T10:47:28.840Z,24.10
2018-06-25T10:49:56.608Z,24.70
2018-06-25T10:52:24.347Z,24.80
2018-06-25T10:54:52.217Z,24.20
2018-06-25T10:57:20.125Z,23.60
2018-06-25T10:59:48.316Z,22.60
2018-06-25T11:02:16.028Z,22.00
2018-06-25T11:04:43.795Z,21.20
2018-06-25T11:07:11.769Z,21.00
2018-06-25T11:09:39.521Z,21.50
2018-06-25T11:12:07.329Z,23.10
2018-06-25T11:14:35.262Z,24.50
2018-06-25T11:17:03.012Z,25.70
2018-06-25T11:19:32.618Z,26.30
2018-06-25T11:22:00.368Z,26.60
2018-06-25T11:24:28.258Z,26.50
2018-06-25T11:26:56.194Z,26.50
2018-06-25T11:29:23.824Z,27.00
2018-06-25T11:31:52.380Z,26.20
2018-06-25T11:34:20.181Z,25.70
2018-06-25T11:36:47.935Z,24.90
2018-06-25T11:39:15.730Z,24.20
2018-06-25T11:41:43.553Z,24.30
2018-06-25T11:44:11.318Z,24.50
2018-06-25T11:46:39.114Z,23.40
2018-06-25T11:49:14.093Z,22.10
2018-06-25T11:51:41.889Z,21.80
2018-06-25T11:54:09.801Z,21.60
2018-06-25T11:56:37.686Z,21.60
2018-06-25T11:59:05.559Z,21.80
2018-06-25T12:01:33.361Z,22.00
2018-06-25T12:04:01.067Z,22.30
2018-06-25T12:06:28.861Z,22.10
2018-06-25T12:09:01.125Z,22.70
2018-06-25T12:11:28.938Z,23.20
2018-06-25T12:13:58.282Z,23.50
2018-06-25T12:16:26.206Z,24.60
2018-06-25T12:18:54.006Z,26.50
2018-06-25T12:21:21.688Z,27.40
2018-06-25T12:23:49.484Z,26.80
2018-06-25T12:26:17.306Z,26.00
2018-06-25T12:28:45.090Z,24.90
2018-06-25T12:31:12.852Z,25.20
2018-06-25T12:33:40.601Z,26.10
2018-06-25T12:36:09.654Z,26.70
2018-06-25T12:38:50.194Z,27.90
2018-06-25T12:41:17.943Z,28.60
2018-06-25T12:43:45.792Z,29.00
2018-06-25T12:46:13.724Z,30.00
2018-06-25T12:48:41.374Z,30.60
2018-06-25T12:51:09.430Z,31.60
2018-06-25T12:56:30.211Z,30.80
2018-06-25T12:58:57.994Z,30.50
2018-06-25T13:04:18.680Z,27.80
2018-06-25T13:12:32.430Z,24.00
2018-06-25T13:15:00.284Z,23.60
2018-06-25T13:17:28.227Z,23.60
2018-06-25T13:19:56.044Z,23.60
2018-06-25T13:22:23.815Z,23.50
2018-06-25T13:24:51.592Z,24.10
2018-06-25T13:27:19.462Z,25.40
2018-06-25T13:32:40.492Z,24.90
2018-06-25T13:35:08.271Z,24.90
2018-06-25T13:37:36.226Z,24.60
2018-06-25T13:40:04.485Z,24.20
2018-06-25T13:42:32.422Z,23.80
2018-06-25T13:45:00.436Z,25.30
2018-06-25T13:47:28.217Z,26.00
2018-06-25T13:49:55.910Z,27.00
2018-06-25T13:52:23.645Z,28.90
2018-06-25T13:55:07.626Z,28.90
2018-06-25T13:57:35.470Z,27.80
2018-06-25T14:00:04.066Z,26.80
2018-06-25T14:02:31.882Z,26.50
2018-06-25T14:07:53.355Z,28.60
2018-06-25T14:10:28.230Z,29.70
2018-06-25T14:12:56.141Z,30.90
2018-06-25T14:15:24.131Z,30.00
2018-06-25T14:17:52.321Z,29.70
2018-06-25T14:20:20.111Z,29.70
2018-06-25T14:22:48.051Z,29.60
2018-06-25T14:25:15.826Z,28.30
2018-06-25T14:27:49.466Z,26.80
2018-06-25T14:30:23.022Z,26.10
2018-06-25T14:32:55.329Z,26.80
2018-06-25T14:35:23.180Z,28.20
2018-06-25T14:37:50.957Z,29.30
2018-06-25T14:40:18.718Z,30.90
2018-06-25T14:42:46.639Z,31.10
2018-06-25T14:45:14.770Z,30.50
2018-06-25T14:47:42.933Z,30.50
2018-06-25T14:50:10.788Z,30.50
2018-06-25T14:52:38.597Z,30.60
2018-06-25T14:55:06.429Z,30.20
2018-06-25T14:57:34.214Z,29.60
2018-06-25T15:00:02.995Z,29.00
2018-06-25T15:02:30.958Z,28.50
2018-06-25T15:04:59.142Z,28.00
2018-06-25T15:07:27.059Z,27.80
2018-06-25T15:09:59.273Z,28.30
2018-06-25T15:12:27.204Z,28.00
2018-06-25T15:14:54.970Z,26.70
2018-06-25T15:17:22.796Z,26.50
2018-06-25T15:19:50.497Z,25.30
2018-06-25T15:22:18.343Z,25.20
2018-06-25T15:24:46.157Z,24.50
2018-06-25T15:27:13.932Z,24.80
2018-06-25T15:29:41.734Z,24.70
2018-06-25T15:32:09.600Z,25.10
2018-06-25T15:34:37.358Z,26.30
2018-06-25T15:37:05.149Z,27.30
2018-06-25T15:39:33.012Z,27.70
2018-06-25T15:42:00.778Z,26.30
2018-06-25T15:44:28.908Z,26.40
2018-06-25T15:46:56.710Z,26.10
2018-06-25T15:49:24.541Z,25.10
2018-06-25T15:51:52.478Z,24.20
2018-06-25T15:54:21.306Z,23.70
2018-06-25T15:56:49.085Z,23.80
2018-06-25T15:59:16.850Z,23.70
2018-06-25T16:01:44.626Z,23.20
2018-06-25T16:04:12.623Z,22.70
2018-06-25T16:06:40.493Z,22.30
2018-06-25T16:09:08.216Z,22.50
2018-06-25T16:11:36.143Z,22.30
2018-06-25T16:14:04.381Z,22.40
2018-06-25T16:16:33.320Z,22.50
2018-06-25T16:19:01.327Z,22.30
2018-06-25T16:21:29.414Z,22.00
2018-06-25T16:23:57.162Z,22.10
2018-06-25T16:26:33.342Z,22.30
2018-06-25T16:29:01.057Z,22.60
2018-06-25T16:31:28.914Z,22.60
2018-06-25T16:33:59.467Z,22.60
2018-06-25T16:36:27.242Z,22.60
2018-06-25T16:38:55.026Z,22.70
2018-06-25T16:41:22.754Z,22.90
2018-06-25T16:43:50.561Z,23.00
2018-06-25T16:46:18.378Z,22.70
2018-06-25T16:48:46.146Z,22.60
2018-06-25T16:51:13.966Z,22.70
2018-06-25T16:53:41.778Z,22.70
2018-06-25T16:56:09.651Z,23.10
2018-06-25T16:58:37.645Z,22.80
2018-06-25T17:01:05.469Z,22.80
2018-06-25T17:03:33.218Z,22.70
2018-06-25T17:06:01.169Z,22.90
2018-06-25T17:08:28.940Z,23.10
2018-06-25T17:10:57.501Z,23.10
2018-06-25T17:15:52.953Z,22.20
2018-06-25T17:18:20.714Z,22.00
2018-06-25T17:20:53.050Z,22.10
2018-06-25T17:23:20.812Z,22.00
2018-06-25T17:28:16.385Z,21.80
2018-06-25T17:30:44.236Z,21.60
2018-06-25T17:33:12.094Z,21.50
2018-06-25T17:35:44.291Z,21.60
2018-06-25T17:38:20.555Z,21.40
2018-06-25T17:40:48.362Z,21.50
2018-06-25T17:43:16.193Z,21.40
2018-06-25T17:45:44.000Z,21.20
2018-06-25T17:48:12.012Z,21.10
2018-06-25T17:50:44.849Z,21.00
2018-06-25T17:53:12.700Z,20.90
2018-06-25T17:55:40.542Z,20.80
2018-06-25T17:58:08.386Z,20.60
2018-06-25T18:00:36.292Z,20.40
2018-06-25T18:03:04.112Z,20.30
2018-06-25T18:08:05.680Z,20.30
2018-06-25T18:10:33.792Z,20.20
2018-06-25T18:13:01.740Z,20.30
2018-06-25T18:18:23.672Z,20.20
2018-06-25T18:20:51.715Z,20.20
2018-06-25T18:23:19.586Z,20.10
2018-06-25T18:25:47.340Z,20.10
2018-06-25T18:28:15.368Z,20.00
2018-06-25T18:30:43.547Z,19.90
2018-06-25T18:33:11.394Z,19.70
2018-06-25T18:35:39.156Z,19.70
2018-06-25T18:38:14.396Z,19.70
2018-06-25T18:40:42.932Z,19.60
2018-06-25T18:43:10.851Z,19.60
2018-06-25T18:45:38.928Z,19.50
2018-06-25T18:48:06.749Z,19.50
2018-06-25T18:50:35.908Z,19.50
2018-06-25T18:53:04.729Z,19.60
2018-06-25T18:55:33.857Z,19.60
2018-06-25T18:58:01.709Z,19.50
2018-06-25T19:00:29.640Z,19.40
2018-06-25T19:02:57.745Z,19.40
2018-06-25T19:08:18.521Z,19.20
2018-06-25T19:10:46.477Z,19.10
2018-06-25T19:13:14.436Z,19.10
2018-06-25T19:15:42.880Z,18.90
2018-06-25T19:18:11.893Z,18.70
2018-06-25T19:20:39.791Z,18.60
2018-06-25T19:23:07.713Z,18.50
2018-06-25T19:26:03.420Z,18.40
2018-06-25T19:28:31.736Z,18.50
2018-06-25T19:30:59.753Z,18.40
2018-06-25T19:33:27.639Z,18.30
2018-06-25T19:38:48.188Z,18.00
2018-06-25T19:41:16.589Z,18.00
2018-06-25T19:44:03.768Z,17.90
2018-06-25T19:46:31.602Z,17.80
2018-06-25T19:48:59.571Z,17.50
2018-06-25T19:51:27.391Z,17.40
2018-06-25T19:53:55.464Z,17.30
2018-06-25T19:56:23.314Z,17.20
2018-06-25T19:58:51.483Z,17.10
2018-06-25T20:04:12.519Z,17.00
2018-06-25T20:06:40.512Z,16.90
2018-06-25T20:09:10.729Z,16.70
2018-06-25T20:11:38.754Z,16.50
2018-06-25T20:14:08.594Z,16.10
2018-06-25T20:16:36.593Z,15.80
2018-06-25T20:19:04.494Z,15.80
2018-06-25T20:21:32.464Z,15.90
2018-06-25T20:24:00.397Z,16.00
2018-06-25T20:26:28.226Z,15.80
2018-06-25T20:28:56.023Z,15.70
2018-06-25T20:31:23.812Z,16.00
2018-06-25T20:33:51.859Z,15.90
2018-06-25T20:36:19.790Z,15.80
2018-06-25T20:38:47.532Z,15.60
2018-06-25T20:41:15.364Z,15.70
2018-06-25T20:44:06.616Z,15.50
2018-06-25T20:46:35.483Z,15.30
2018-06-25T20:49:03.710Z,15.00
2018-06-25T20:51:31.674Z,14.90
2018-06-25T20:53:59.558Z,14.80
2018-06-25T20:56:27.367Z,14.80
2018-06-25T20:58:55.137Z,14.70
2018-06-25T21:03:50.676Z,14.50
2018-06-25T21:06:18.621Z,14.30
2018-06-25T21:08:46.596Z,14.30
2018-06-25T21:11:14.537Z,14.20
2018-06-25T21:13:42.303Z,14.20
2018-06-25T21:16:10.234Z,14.30
2018-06-25T21:18:38.029Z,14.40
2018-06-25T21:21:06.064Z,14.30
2018-06-25T21:29:50.495Z,14.10
2018-06-25T21:32:18.226Z,14.10
2018-06-25T21:34:45.983Z,14.20
2018-06-25T21:37:14.022Z,14.10
2018-06-25T21:42:09.567Z,13.90
2018-06-25T21:44:37.363Z,13.80
2018-06-25T21:47:05.288Z,13.70
2018-06-25T21:49:33.101Z,13.60
2018-06-25T21:52:00.857Z,13.60
2018-06-25T21:54:28.629Z,13.50
2018-06-25T21:59:24.045Z,13.50
2018-06-25T22:01:54.456Z,13.30
2018-06-25T22:04:22.264Z,13.20
2018-06-25T22:06:50.143Z,13.10
2018-06-25T22:09:18.079Z,13.10
2018-06-25T22:11:46.170Z,13.00
2018-06-25T22:14:14.029Z,12.90
2018-06-25T22:16:42.078Z,13.00
2018-06-25T22:19:09.886Z,12.90
2018-06-25T22:21:37.853Z,13.00
2018-06-25T22:24:06.075Z,12.90
2018-06-25T22:26:33.866Z,12.90
2018-06-25T22:29:01.794Z,12.80
2018-06-25T22:31:29.538Z,12.80
2018-06-25T22:33:57.322Z,12.70
2018-06-25T22:36:25.073Z,12.70
2018-06-25T22:41:20.450Z,12.60
2018-06-25T22:43:48.205Z,12.50
2018-06-25T22:46:16.197Z,12.40
2018-06-25T22:48:43.981Z,12.50
2018-06-25T22:51:11.925Z,12.50
2018-06-25T22:53:39.661Z,12.40
2018-06-25T22:56:07.397Z,12.30
2018-06-25T22:58:37.066Z,12.30
2018-06-25T23:01:06.790Z,12.20
2018-06-25T23:03:36.115Z,12.20
2018-06-25T23:06:03.863Z,12.10
2018-06-25T23:10:59.320Z,12.00
2018-06-25T23:13:27.156Z,12.00
2018-06-25T23:18:23.076Z,12.00
2018-06-25T23:20:50.833Z,12.00
2018-06-25T23:23:18.603Z,12.10
2018-06-25T23:25:46.463Z,12.20
2018-06-25T23:28:14.260Z,12.30
2018-06-25T23:30:42.081Z,12.30
2018-06-25T23:33:09.793Z,12.30
2018-06-25T23:38:05.173Z,12.30
2018-06-25T23:40:32.923Z,12.40
2018-06-25T23:43:00.796Z,12.40
2018-06-25T23:45:28.629Z,12.40
2018-06-25T23:47:56.417Z,12.50
2018-06-25T23:50:24.192Z,12.50
2018-06-25T23:52:51.904Z,12.50
2018-06-25T23:55:19.643Z,12.50
2018-06-25T23:57:47.539Z,12.50
